createdAt,value
2023-02-02T00:04:56.148Z,60.53
2023-02-02T00:09:58.543Z,59.97
2023-02-02T00:15:00.910Z,60.41
2023-02-02T00:20:03.794Z,60.85
2023-02-02T00:25:06.982Z,60.47
2023-02-02T00:30:10.040Z,60.29
2023-02-02T00:35:12.746Z,60.70
2023-02-02T00:40:15.607Z,60.58
2023-02-02T00:45:18.348Z,61.19
2023-02-02T00:50:22.203Z,61.32
2023-02-02T00:55:25.191Z,61.25
2023-02-02T01:00:28.255Z,61.29
2023-02-02T01:05:31.832Z,61.58
2023-02-02T01:10:34.827Z,61.55
2023-02-02T01:15:37.854Z,62.33
2023-02-02T01:20:40.300Z,61.88
2023-02-02T01:25:43.130Z,62.00
2023-02-02T01:30:46.009Z,62.60
2023-02-02T01:35:52.833Z,62.32
2023-02-02T01:40:57.227Z,62.33
2023-02-02T01:45:59.911Z,62.50
2023-02-02T01:51:07.137Z,62.47
2023-02-02T01:56:12.885Z,62.58
2023-02-02T02:01:15.447Z,62.92
2023-02-02T02:06:20.261Z,62.47
2023-02-02T02:11:24.314Z,62.58
2023-02-02T02:16:30.195Z,62.43
2023-02-02T02:22:12.620Z,62.50
2023-02-02T02:27:41.345Z,62.94
2023-02-02T02:32:56.039Z,62.77
2023-02-02T02:38:16.879Z,62.83
2023-02-02T02:43:25.859Z,62.97
2023-02-02T02:48:30.228Z,62.44
2023-02-02T02:53:33.938Z,62.47
2023-02-02T02:59:08.873Z,62.25
2023-02-02T03:04:15.095Z,62.27
2023-02-02T03:09:25.409Z,61.75
2023-02-02T03:14:27.993Z,61.93
2023-02-02T03:19:30.423Z,61.94
2023-02-02T03:24:32.804Z,62.01
2023-02-02T03:29:35.190Z,62.15
2023-02-02T03:34:37.646Z,62.44
2023-02-02T03:39:40.093Z,62.44
2023-02-02T03:44:42.613Z,62.02
2023-02-02T03:49:45.649Z,61.42
2023-02-02T03:54:48.172Z,61.39
2023-02-02T03:59:50.626Z,61.36
2023-02-02T04:04:54.421Z,61.09
2023-02-02T04:09:56.817Z,60.98
2023-02-02T04:14:59.282Z,60.33
2023-02-02T04:20:02.894Z,60.35
2023-02-02T04:25:06.073Z,60.38
2023-02-02T04:30:09.294Z,60.34
2023-02-02T04:35:11.838Z,59.87
2023-02-02T04:40:14.984Z,60.24
2023-02-02T04:45:17.358Z,60.06
2023-02-02T04:50:19.748Z,59.73
2023-02-02T04:55:23.196Z,59.95
2023-02-02T05:00:25.810Z,59.74
2023-02-02T05:05:28.420Z,59.83
2023-02-02T05:10:31.290Z,59.85
2023-02-02T05:15:33.749Z,59.72
2023-02-02T05:20:36.148Z,59.63
2023-02-02T05:25:38.606Z,59.52
2023-02-02T05:30:41.015Z,59.01
2023-02-02T05:35:46.187Z,59.46
2023-02-02T05:40:49.859Z,59.48
2023-02-02T05:45:52.326Z,59.52
2023-02-02T05:51:04.071Z,59.34
2023-02-02T05:56:06.736Z,59.40
2023-02-02T06:01:10.268Z,59.64
2023-02-02T06:06:13.538Z,59.43
2023-02-02T06:11:18.458Z,58.73
2023-02-02T06:16:20.975Z,58.40
2023-02-02T06:21:25.024Z,58.16
2023-02-02T06:26:27.588Z,58.22
2023-02-02T06:31:30.187Z,58.30
2023-02-02T06:36:32.647Z,58.43
2023-02-02T06:41:37.832Z,58.38
2023-02-02T06:46:40.259Z,57.99
2023-02-02T06:51:42.802Z,58.12
2023-02-02T06:56:45.461Z,58.06
2023-02-02T07:01:50.363Z,57.56
2023-02-02T07:06:52.856Z,56.81
2023-02-02T07:11:55.238Z,56.24
2023-02-02T07:16:57.636Z,55.65
2023-02-02T07:21:59.984Z,55.73
2023-02-02T07:27:02.349Z,55.60
2023-02-02T07:32:04.992Z,54.60
2023-02-02T07:37:07.435Z,53.96
2023-02-02T07:42:13.253Z,53.39
2023-02-02T07:47:17.592Z,52.86
2023-02-02T07:52:20.020Z,52.50
2023-02-02T07:57:22.416Z,52.46
2023-02-02T08:02:25.157Z,52.16
2023-02-02T08:07:27.640Z,52.00
2023-02-02T08:12:30.056Z,51.20
2023-02-02T08:17:32.526Z,51.25
2023-02-02T08:22:35.012Z,50.73
2023-02-02T08:27:38.064Z,50.42
2023-02-02T08:32:40.713Z,49.40
2023-02-02T08:37:43.273Z,49.60
2023-02-02T08:42:47.810Z,49.63
2023-02-02T08:48:05.269Z,48.70
2023-02-02T08:53:13.143Z,47.84
2023-02-02T08:58:15.563Z,47.31
2023-02-02T09:03:17.977Z,46.08
2023-02-02T09:08:21.792Z,44.14
2023-02-02T09:13:24.324Z,43.10
2023-02-02T09:18:28.211Z,42.46
2023-02-02T09:23:32.210Z,42.11
2023-02-02T09:28:34.643Z,41.75
2023-02-02T09:33:37.918Z,41.22
2023-02-02T09:38:41.045Z,39.92
2023-02-02T09:44:05.408Z,39.29
2023-02-02T09:49:15.734Z,39.78
2023-02-02T09:54:45.743Z,39.37
2023-02-02T09:59:51.414Z,38.65
2023-02-02T10:05:05.756Z,38.46
2023-02-02T10:10:17.124Z,38.90
2023-02-02T10:15:46.033Z,38.93
2023-02-02T10:20:57.748Z,38.92
2023-02-02T10:26:22.827Z,40.65
2023-02-02T10:31:47.211Z,41.10
2023-02-02T10:37:14.360Z,40.92
2023-02-02T10:42:32.323Z,40.33
2023-02-02T10:47:34.737Z,41.23
2023-02-02T10:52:38.021Z,42.37
2023-02-02T10:57:56.462Z,42.15
2023-02-02T11:03:00.587Z,42.89
2023-02-02T11:08:03.331Z,42.66
2023-02-02T11:13:08.267Z,43.75
2023-02-02T11:18:29.402Z,43.39
2023-02-02T11:23:32.634Z,43.77
2023-02-02T11:28:37.341Z,43.40
2023-02-02T11:33:40.018Z,43.57
2023-02-02T11:38:42.456Z,44.45
2023-02-02T11:43:55.632Z,44.26
2023-02-02T11:49:17.093Z,44.15
2023-02-02T11:54:29.576Z,45.06
2023-02-02T11:59:43.672Z,45.20
2023-02-02T12:04:51.104Z,45.70
2023-02-02T12:09:57.357Z,46.06
2023-02-02T12:15:22.258Z,45.95
2023-02-02T12:20:35.732Z,45.94
2023-02-02T12:26:02.776Z,45.45
2023-02-02T12:31:33.282Z,45.98
2023-02-02T12:36:42.290Z,46.09
2023-02-02T12:42:09.280Z,46.69
2023-02-02T12:47:34.726Z,46.48
2023-02-02T12:52:58.680Z,46.43
2023-02-02T12:58:27.971Z,46.73
2023-02-02T13:03:54.810Z,47.22
2023-02-02T13:09:21.914Z,47.40
2023-02-02T13:14:30.349Z,47.55
2023-02-02T13:19:40.801Z,47.92
2023-02-02T13:24:46.858Z,48.25
2023-02-02T13:30:11.415Z,48.92
2023-02-02T13:35:31.706Z,49.21
2023-02-02T13:40:42.169Z,49.84
2023-02-02T13:46:25.540Z,50.27
2023-02-02T13:51:54.055Z,51.27
2023-02-02T13:56:59.448Z,51.37
2023-02-02T14:02:02.209Z,52.26
2023-02-02T14:07:06.681Z,52.55
2023-02-02T14:12:11.407Z,53.28
2023-02-02T14:17:13.785Z,53.32
2023-02-02T14:22:16.232Z,53.27
2023-02-02T14:27:18.725Z,54.17
2023-02-02T14:32:29.705Z,53.91
2023-02-02T14:37:43.420Z,54.40
2023-02-02T14:43:18.152Z,54.27
2023-02-02T14:48:24.220Z,54.56
2023-02-02T14:53:38.152Z,54.50
2023-02-02T14:59:00.757Z,53.92
2023-02-02T15:04:23.587Z,53.51
2023-02-02T15:09:29.616Z,53.87
2023-02-02T15:14:51.699Z,53.86
2023-02-02T15:19:57.952Z,53.66
2023-02-02T15:25:11.637Z,54.19
2023-02-02T15:30:18.151Z,53.80
2023-02-02T15:35:26.621Z,54.03
2023-02-02T15:40:32.439Z,54.15
2023-02-02T15:45:43.745Z,54.73
2023-02-02T15:50:57.356Z,54.91
2023-02-02T15:56:00.387Z,54.66
2023-02-02T16:01:14.966Z,55.42
2023-02-02T16:06:18.750Z,55.10
2023-02-02T16:11:26.481Z,55.54
2023-02-02T16:16:30.127Z,55.14
2023-02-02T16:21:34.549Z,55.52
2023-02-02T16:26:37.283Z,55.43
2023-02-02T16:31:42.981Z,55.47
2023-02-02T16:37:04.333Z,55.13
2023-02-02T16:42:30.110Z,55.29
2023-02-02T16:47:38.250Z,56.33
2023-02-02T16:52:53.909Z,56.50
2023-02-02T16:57:57.458Z,56.70
2023-02-02T17:03:10.265Z,57.58
2023-02-02T17:08:12.774Z,57.45
2023-02-02T17:13:32.645Z,57.70
2023-02-02T17:18:46.954Z,57.93
2023-02-02T17:23:54.673Z,57.95
2023-02-02T17:28:57.436Z,57.37
2023-02-02T17:34:17.527Z,58.00
2023-02-02T17:39:20.108Z,57.84
2023-02-02T17:44:32.466Z,58.01
2023-02-02T17:49:34.910Z,57.57
2023-02-02T17:54:42.901Z,57.81
2023-02-02T17:59:50.234Z,58.65
2023-02-02T18:04:52.682Z,58.22
2023-02-02T18:10:06.188Z,58.28
2023-02-02T18:15:22.098Z,58.58
2023-02-02T18:20:38.322Z,58.71
2023-02-02T18:25:53.202Z,58.74
2023-02-02T18:31:01.258Z,59.30
2023-02-02T18:36:12.167Z,59.75
2023-02-02T18:41:21.922Z,59.64
2023-02-02T18:46:34.124Z,60.76
2023-02-02T18:51:42.356Z,60.88
2023-02-02T18:56:47.280Z,61.58
2023-02-02T19:01:51.995Z,61.34
2023-02-02T19:07:13.130Z,61.96
2023-02-02T19:12:27.050Z,61.73
2023-02-02T19:17:30.082Z,62.72
2023-02-02T19:22:36.014Z,63.03
2023-02-02T19:27:38.640Z,63.28
2023-02-02T19:32:41.933Z,63.71
2023-02-02T19:37:48.876Z,64.01
2023-02-02T19:43:07.731Z,65.30
2023-02-02T19:48:23.831Z,65.42
2023-02-02T19:53:37.927Z,65.78
2023-02-02T19:58:40.448Z,65.40
2023-02-02T20:03:45.660Z,65.57
2023-02-02T20:08:51.109Z,66.08
2023-02-02T20:13:53.616Z,66.85
2023-02-02T20:18:58.176Z,67.53
2023-02-02T20:24:01.007Z,67.91
2023-02-02T20:29:17.274Z,67.13
2023-02-02T20:34:30.428Z,67.54
2023-02-02T20:40:03.814Z,67.55
2023-02-02T20:45:07.016Z,67.30
2023-02-02T20:50:11.315Z,67.60
2023-02-02T20:55:13.950Z,67.57
2023-02-02T21:00:17.970Z,67.78
2023-02-02T21:05:20.411Z,67.73
2023-02-02T21:10:24.811Z,67.88
2023-02-02T21:15:27.673Z,67.20
2023-02-02T21:20:30.256Z,66.93
2023-02-02T21:25:32.754Z,66.98
2023-02-02T21:30:35.969Z,66.74
2023-02-02T21:35:38.518Z,66.92
2023-02-02T21:40:41.252Z,66.50
2023-02-02T21:45:48.901Z,66.58
2023-02-02T21:50:51.412Z,66.98
2023-02-02T21:56:01.345Z,67.60
2023-02-02T22:01:21.190Z,67.77
2023-02-02T22:06:31.202Z,67.56
2023-02-02T22:11:54.962Z,66.97
2023-02-02T22:16:59.003Z,67.41
2023-02-02T22:22:25.647Z,68.09
2023-02-02T22:27:46.865Z,67.75
2023-02-02T22:32:49.392Z,68.00
2023-02-02T22:37:52.176Z,68.60
2023-02-02T22:42:58.481Z,68.28
2023-02-02T22:48:01.678Z,68.34
2023-02-02T22:53:04.746Z,68.16
2023-02-02T22:58:07.198Z,68.13
2023-02-02T23:03:09.844Z,67.93
2023-02-02T23:08:12.568Z,67.71
2023-02-02T23:13:15.241Z,67.97
2023-02-02T23:18:17.822Z,67.78
2023-02-02T23:23:20.242Z,66.96
2023-02-02T23:28:22.708Z,67.12
2023-02-02T23:33:25.629Z,67.23
2023-02-02T23:38:28.140Z,67.43
2023-02-02T23:43:30.748Z,67.71
2023-02-02T23:48:33.302Z,67.43
2023-02-02T23:53:35.937Z,66.89
2023-02-02T23:58:38.528Z,67.46
